Time,TemperatureF,DewpointF,PressureIn,WindDirection,WindDirectionDegrees,WindSpeedMPH,WindSpeedGustMPH,Humidity,HourlyPrecipIn,Conditions,Clouds,dailyrainin,SoftwareType,DateUTC
2013-01-31 00:00:00,38.6,14.0,30.01,North,352,4.0,16.0,36,0.00,,,0.00,weatherlink.com 1.10,2013-01-31 07:00:00,
2013-01-31 00:15:00,38.6,14.0,30.01,NW,305,6.0,11.0,36,0.00,,,0.00,weatherlink.com 1.10,2013-01-31 07:15:00,
2013-01-31 00:30:00,38.9,14.0,29.99,West,277,3.0,13.0,36,0.00,,,0.00,weatherlink.com 1.10,2013-01-31 07:30:00,
2013-01-31 00:45:00,38.9,14.0,29.99,NW,307,7.0,12.0,37,0.00,,,0.00,weatherlink.com 1.10,2013-01-31 07:45:00,
2013-01-31 01:00:00,38.5,15.0,29.99,NW,306,5.0,14.0,39,0.00,,,0.00,weatherlink.com 1.10,2013-01-31 08:00:00,
2013-01-31 01:15:00,38.7,14.0,29.99,NW,309,5.0,9.0,37,0.00,,,0.00,weatherlink.com 1.10,2013-01-31 08:15:00,
2013-01-31 01:31:00,37.9,15.0,29.99,WNW,294,0.0,7.0,39,0.00,,,0.00,weatherlink.com 1.10,2013-01-31 08:31:00,
2013-01-31 01:46:00,37.4,14.0,29.99,West,267,0.0,5.0,39,0.00,,,0.00,weatherlink.com 1.10,2013-01-31 08:46:00,
2013-01-31 02:01:00,35.8,14.0,29.99,South,188,0.0,2.0,41,0.00,,,0.00,weatherlink.com 1.10,2013-01-31 09:01:00,
2013-01-31 02:16:00,35.7,13.0,29.99,NW,313,0.0,4.0,40,0.00,,,0.00,weatherlink.com 1.10,2013-01-31 09:16:00,
2013-01-31 02:31:00,35.9,14.0,29.99,NW,318,1.0,4.0,40,0.00,,,0.00,weatherlink.com 1.10,2013-01-31 09:31:00,
2013-01-31 02:46:00,37.3,14.0,30.00,West,274,0.0,4.0,38,0.00,,,0.00,weatherlink.com 1.10,2013-01-31 09:46:00,
2013-01-31 03:01:00,37.8,14.0,30.00,NNW,342,3.0,6.0,38,0.00,,,0.00,weatherlink.com 1.10,2013-01-31 10:01:00,
2013-01-31 03:16:00,37.3,14.0,29.99,NNW,333,0.0,3.0,39,0.00,,,0.00,weatherlink.com 1.10,2013-01-31 10:16:00,
2013-01-31 03:31:00,36.6,15.0,29.98,WSW,250,0.0,3.0,41,0.00,,,0.00,weatherlink.com 1.10,2013-01-31 10:31:00,
2013-01-31 03:46:00,35.7,15.0,29.98,WNW,288,0.0,2.0,42,0.00,,,0.00,weatherlink.com 1.10,2013-01-31 10:46:00,
2013-01-31 04:01:00,35.8,15.0,29.99,NW,326,2.0,4.0,43,0.00,,,0.00,weatherlink.com 1.10,2013-01-31 11:01:00,
2013-01-31 04:16:00,36.6,15.0,30.01,NW,309,0.0,9.0,41,0.00,,,0.00,weatherlink.com 1.10,2013-01-31 11:16:00,
2013-01-31 04:31:00,35.2,15.0,30.00,NNW,339,0.0,2.0,44,0.00,,,0.00,weatherlink.com 1.10,2013-01-31 11:31:00,
2013-01-31 04:46:00,34.7,14.0,30.00,NW,309,0.0,3.0,43,0.00,,,0.00,weatherlink.com 1.10,2013-01-31 11:46:00,
2013-01-31 05:01:00,35.8,14.0,30.00,NNW,340,1.0,5.0,41,0.00,,,0.00,weatherlink.com 1.10,2013-01-31 12:01:00,
2013-01-31 05:16:00,36.1,14.0,30.00,NE,49,0.0,6.0,40,0.00,,,0.00,weatherlink.com 1.10,2013-01-31 12:16:00,
2013-01-31 05:31:00,36.0,14.0,30.00,NW,312,0.0,3.0,40,0.00,,,0.00,weatherlink.com 1.10,2013-01-31 12:31:00,
2013-01-31 05:46:00,35.1,13.0,30.01,NNE,19,0.0,4.0,41,0.00,,,0.00,weatherlink.com 1.10,2013-01-31 12:46:00,
2013-01-31 06:01:00,32.8,14.0,30.02,NW,309,0.0,0.0,46,0.00,,,0.00,weatherlink.com 1.10,2013-01-31 13:01:00,
2013-01-31 06:16:00,30.5,14.0,30.02,NNE,27,0.0,5.0,50,0.00,,,0.00,weatherlink.com 1.10,2013-01-31 13:16:00,
2013-01-31 06:31:00,28.0,14.0,30.02,East,95,1.0,2.0,56,0.00,,,0.00,weatherlink.com 1.10,2013-01-31 13:31:00,
2013-01-31 06:46:00,26.0,14.0,30.02,ENE,65,0.0,4.0,62,0.00,,,0.00,weatherlink.com 1.10,2013-01-31 13:46:00,
2013-01-31 07:01:00,25.0,15.0,30.04,South,177,0.0,3.0,65,0.00,,,0.00,weatherlink.com 1.10,2013-01-31 14:01:00,
2013-01-31 07:16:00,24.2,15.0,30.05,ESE,108,0.0,4.0,69,0.00,,,0.00,weatherlink.com 1.10,2013-01-31 14:16:00,
2013-01-31 07:31:00,23.4,15.0,30.06,East,91,1.0,3.0,71,0.00,,,0.00,weatherlink.com 1.10,2013-01-31 14:31:00,
2013-01-31 07:46:00,23.0,16.0,30.08,NE,41,0.0,2.0,73,0.00,,,0.00,weatherlink.com 1.10,2013-01-31 14:46:00,
2013-01-31 08:01:00,23.6,17.0,30.10,ENE,72,2.0,4.0,75,0.00,,,0.00,weatherlink.com 1.10,2013-01-31 15:01:00,
2013-01-31 08:17:00,24.3,18.0,30.11,ENE,65,0.0,4.0,76,0.00,,,0.00,weatherlink.com 1.10,2013-01-31 15:17:00,
2013-01-31 08:32:00,25.5,18.0,30.12,ESE,122,1.0,4.0,74,0.00,,,0.00,weatherlink.com 1.10,2013-01-31 15:32:00,
2013-01-31 08:47:00,27.0,19.0,30.13,SSW,205,2.0,2.0,71,0.00,,,0.00,weatherlink.com 1.10,2013-01-31 15:47:00,
2013-01-31 09:02:00,28.4,19.0,30.14,East,82,0.0,3.0,68,0.00,,,0.00,weatherlink.com 1.10,2013-01-31 16:02:00,
2013-01-31 09:17:00,30.6,20.0,30.14,East,83,2.0,4.0,65,0.00,,,0.00,weatherlink.com 1.10,2013-01-31 16:17:00,
2013-01-31 09:32:00,33.0,20.0,30.14,East,84,0.0,3.0,60,0.00,,,0.00,weatherlink.com 1.10,2013-01-31 16:32:00,
2013-01-31 09:47:00,34.3,20.0,30.14,East,96,1.0,3.0,57,0.00,,,0.00,weatherlink.com 1.10,2013-01-31 16:47:00,
2013-01-31 10:02:00,35.6,20.0,30.15,ENE,77,1.0,4.0,54,0.00,,,0.00,weatherlink.com 1.10,2013-01-31 17:02:00,
2013-01-31 10:17:00,37.2,20.0,30.15,South,170,1.0,3.0,51,0.00,,,0.00,weatherlink.com 1.10,2013-01-31 17:17:00,
2013-01-31 10:32:00,38.5,21.0,30.14,East,94,2.0,2.0,49,0.00,,,0.00,weatherlink.com 1.10,2013-01-31 17:32:00,
2013-01-31 10:47:00,40.0,21.0,30.14,North,359,2.0,2.0,46,0.00,,,0.00,weatherlink.com 1.10,2013-01-31 17:47:00,
2013-01-31 11:02:00,40.5,18.0,30.14,NNW,338,1.0,4.0,40,0.00,,,0.00,weatherlink.com 1.10,2013-01-31 18:02:00,
2013-01-31 11:17:00,42.0,17.0,30.14,NW,321,2.0,6.0,37,0.00,,,0.00,weatherlink.com 1.10,2013-01-31 18:17:00,
2013-01-31 11:32:00,42.8,17.0,30.13,NNW,332,3.0,8.0,35,0.00,,,0.00,weatherlink.com 1.10,2013-01-31 18:32:00,
2013-01-31 11:47:00,44.1,17.0,30.12,NNE,29,7.0,11.0,34,0.00,,,0.00,weatherlink.com 1.10,2013-01-31 18:47:00,
2013-01-31 12:02:00,45.1,17.0,30.11,NW,322,2.0,11.0,32,0.00,,,0.00,weatherlink.com 1.10,2013-01-31 19:02:00,
2013-01-31 12:17:00,45.4,15.0,30.11,West,281,4.0,12.0,29,0.01,,,0.01,weatherlink.com 1.10,2013-01-31 19:17:00,
2013-01-31 12:32:00,45.5,15.0,30.10,NW,312,6.0,14.0,29,0.01,,,0.01,weatherlink.com 1.10,2013-01-31 19:32:00,
2013-01-31 12:47:00,45.8,14.0,30.09,NE,49,6.0,15.0,28,0.01,,,0.01,weatherlink.com 1.10,2013-01-31 19:47:00,
2013-01-31 13:02:00,46.3,15.0,30.09,NNW,340,6.0,12.0,28,0.01,,,0.01,weatherlink.com 1.10,2013-01-31 20:02:00,
2013-01-31 13:17:00,46.7,14.0,30.09,NNW,336,4.0,11.0,27,0.00,,,0.01,weatherlink.com 1.10,2013-01-31 20:17:00,
2013-01-31 13:32:00,46.6,13.0,30.09,NNW,330,5.0,16.0,26,0.00,,,0.01,weatherlink.com 1.10,2013-01-31 20:32:00,
2013-01-31 13:47:00,46.6,14.0,30.08,North,8,10.0,14.0,27,0.00,,,0.01,weatherlink.com 1.10,2013-01-31 20:47:00,
2013-01-31 14:02:00,46.0,15.0,30.08,NNE,25,10.0,14.0,29,0.00,,,0.01,weatherlink.com 1.10,2013-01-31 21:02:00,
2013-01-31 14:17:00,45.9,14.0,30.08,NNW,339,8.0,12.0,28,0.00,,,0.01,weatherlink.com 1.10,2013-01-31 21:17:00,
2013-01-31 14:32:00,46.0,15.0,30.09,WSW,255,4.0,10.0,29,0.00,,,0.01,weatherlink.com 1.10,2013-01-31 21:32:00,
2013-01-31 14:47:00,46.4,15.0,30.09,SSE,147,3.0,11.0,28,0.00,,,0.01,weatherlink.com 1.10,2013-01-31 21:47:00,
2013-01-31 15:02:00,45.6,20.0,30.09,ENE,72,3.0,10.0,36,0.00,,,0.01,weatherlink.com 1.10,2013-01-31 22:02:00,
2013-01-31 15:17:00,44.3,19.0,30.08,NNE,12,3.0,7.0,37,0.00,,,0.01,weatherlink.com 1.10,2013-01-31 22:17:00,
2013-01-31 15:32:00,43.7,19.0,30.08,NNW,338,4.0,7.0,37,0.00,,,0.01,weatherlink.com 1.10,2013-01-31 22:32:00,
2013-01-31 15:47:00,42.5,20.0,30.08,North,11,2.0,5.0,40,0.00,,,0.01,weatherlink.com 1.10,2013-01-31 22:47:00,
2013-01-31 16:02:00,41.5,20.0,30.08,NNE,25,1.0,2.0,43,0.00,,,0.01,weatherlink.com 1.10,2013-01-31 23:02:00,
2013-01-31 16:17:00,41.1,21.0,30.08,NNW,344,0.0,3.0,44,0.00,,,0.01,weatherlink.com 1.10,2013-01-31 23:17:00,
2013-01-31 16:32:00,41.2,21.0,30.08,East,82,0.0,2.0,44,0.00,,,0.01,weatherlink.com 1.10,2013-01-31 23:32:00,
2013-01-31 16:47:00,41.1,22.0,30.08,NNE,30,2.0,3.0,46,0.00,,,0.01,weatherlink.com 1.10,2013-01-31 23:47:00,
2013-01-31 17:02:00,40.7,21.0,30.08,NNW,339,0.0,2.0,46,0.00,,,0.01,weatherlink.com 1.10,2013-02-01 00:02:00,
2013-01-31 17:18:00,40.2,21.0,30.08,East,93,0.0,1.0,47,0.00,,,0.01,weatherlink.com 1.10,2013-02-01 00:18:00,
2013-01-31 17:33:00,39.6,21.0,30.09,ESE,105,0.0,1.0,48,0.00,,,0.01,weatherlink.com 1.10,2013-02-01 00:33:00,
2013-01-31 17:48:00,39.3,20.0,30.09,East,87,0.0,1.0,46,0.00,,,0.01,weatherlink.com 1.10,2013-02-01 00:48:00,
2013-01-31 18:03:00,39.1,20.0,30.09,East,91,0.0,1.0,46,0.00,,,0.01,weatherlink.com 1.10,2013-02-01 01:03:00,
2013-01-31 18:18:00,38.6,21.0,30.09,East,89,0.0,1.0,49,0.00,,,0.01,weatherlink.com 1.10,2013-02-01 01:18:00,
2013-01-31 18:33:00,38.0,21.0,30.09,East,89,0.0,0.0,50,0.00,,,0.01,weatherlink.com 1.10,2013-02-01 01:33:00,
2013-01-31 18:48:00,37.7,20.0,30.10,East,89,0.0,0.0,49,0.00,,,0.01,weatherlink.com 1.10,2013-02-01 01:48:00,
2013-01-31 19:03:00,37.1,21.0,30.11,SSW,201,0.0,1.0,52,0.00,,,0.01,weatherlink.com 1.10,2013-02-01 02:03:00,
2013-01-31 19:18:00,36.7,21.0,30.11,SSW,201,0.0,1.0,53,0.00,,,0.01,weatherlink.com 1.10,2013-02-01 02:18:00,
2013-01-31 19:33:00,36.3,20.0,30.11,SW,215,0.0,1.0,53,0.00,,,0.01,weatherlink.com 1.10,2013-02-01 02:33:00,
2013-01-31 19:48:00,36.4,20.0,30.11,South,191,0.0,1.0,52,0.00,,,0.01,weatherlink.com 1.10,2013-02-01 02:48:00,
2013-01-31 20:03:00,36.1,20.0,30.11,South,191,0.0,0.0,52,0.00,,,0.01,weatherlink.com 1.10,2013-02-01 03:03:00,
2013-01-31 20:18:00,36.1,19.0,30.12,East,94,0.0,1.0,50,0.00,,,0.01,weatherlink.com 1.10,2013-02-01 03:18:00,
2013-01-31 20:33:00,35.9,19.0,30.12,SE,127,0.0,1.0,50,0.00,,,0.01,weatherlink.com 1.10,2013-02-01 03:33:00,
2013-01-31 20:48:00,35.0,19.0,30.12,SE,127,0.0,0.0,52,0.00,,,0.01,weatherlink.com 1.10,2013-02-01 03:48:00,
2013-01-31 21:03:00,34.3,19.0,30.12,SE,127,0.0,0.0,54,0.00,,,0.01,weatherlink.com 1.10,2013-02-01 04:03:00,
2013-01-31 21:18:00,33.8,19.0,30.12,SE,126,0.0,0.0,55,0.00,,,0.01,weatherlink.com 1.10,2013-02-01 04:18:00,
2013-01-31 21:33:00,33.5,20.0,30.12,SE,127,0.0,1.0,57,0.00,,,0.01,weatherlink.com 1.10,2013-02-01 04:33:00,
2013-01-31 21:48:00,32.7,20.0,30.13,NNW,328,0.0,1.0,59,0.00,,,0.01,weatherlink.com 1.10,2013-02-01 04:48:00,
2013-01-31 22:03:00,31.9,19.0,30.13,NNW,328,0.0,0.0,60,0.00,,,0.01,weatherlink.com 1.10,2013-02-01 05:03:00,
2013-01-31 22:18:00,31.7,19.0,30.13,SSE,155,0.0,1.0,60,0.00,,,0.01,weatherlink.com 1.10,2013-02-01 05:18:00,
2013-01-31 22:33:00,31.2,19.0,30.12,North,6,0.0,2.0,61,0.00,,,0.01,weatherlink.com 1.10,2013-02-01 05:33:00,
2013-01-31 22:48:00,31.3,19.0,30.12,East,82,1.0,2.0,60,0.00,,,0.01,weatherlink.com 1.10,2013-02-01 05:48:00,
2013-01-31 23:03:00,31.5,19.0,30.12,East,95,0.0,1.0,59,0.00,,,0.01,weatherlink.com 1.10,2013-02-01 06:03:00,
2013-01-31 23:18:00,30.0,18.0,30.12,East,94,0.0,0.0,62,0.00,,,0.01,weatherlink.com 1.10,2013-02-01 06:18:00,
2013-01-31 23:33:00,29.1,19.0,30.11,ESE,103,0.0,1.0,65,0.00,,,0.01,weatherlink.com 1.10,2013-02-01 06:33:00,
2013-01-31 23:48:00,28.6,18.0,30.11,SE,136,0.0,2.0,66,0.00,,,0.01,weatherlink.com 1.10,2013-02-01 06:48:00,